sensor_id;sensor_type;location;lat;lon;timestamp;pressure;altitude;pressure_sealevel;temperature;humidity
7309;BME280;3695;53.330;9.876;2024-01-25T00:01:28;101012.66;;;10.72;61.71
7309;BME280;3695;53.330;9.876;2024-01-25T00:03:55;101022.44;;;10.79;61.41
7309;BME280;3695;53.330;9.876;2024-01-25T00:06:24;101022.56;;;10.82;61.42
7309;BME280;3695;53.330;9.876;2024-01-25T00:08:53;101019.13;;;10.85;62.02
7309;BME280;3695;53.330;9.876;2024-01-25T00:11:19;101012.16;;;10.55;61.67
7309;BME280;3695;53.330;9.876;2024-01-25T00:13:46;101025.19;;;10.51;61.63
7309;BME280;3695;53.330;9.876;2024-01-25T00:16:12;101017.91;;;10.74;61.75
7309;BME280;3695;53.330;9.876;2024-01-25T00:18:39;101022.81;;;10.60;61.43
7309;BME280;3695;53.330;9.876;2024-01-25T00:21:05;101027.25;;;10.63;62.10
7309;BME280;3695;53.330;9.876;2024-01-25T00:23:32;101027.56;;;10.42;62.36
7309;BME280;3695;53.330;9.876;2024-01-25T00:26:00;101030.84;;;10.35;62.01
7309;BME280;3695;53.330;9.876;2024-01-25T00:28:27;101028.47;;;10.44;62.17
7309;BME280;3695;53.330;9.876;2024-01-25T00:30:54;101024.03;;;10.41;62.74
7309;BME280;3695;53.330;9.876;2024-01-25T00:33:20;101012.63;;;10.41;62.51
7309;BME280;3695;53.330;9.876;2024-01-25T00:35:47;101012.53;;;10.38;62.56
7309;BME280;3695;53.330;9.876;2024-01-25T00:38:14;101001.31;;;10.43;62.56
7309;BME280;3695;53.330;9.876;2024-01-25T00:40:42;101009.88;;;10.36;62.69
7309;BME280;3695;53.330;9.876;2024-01-25T00:43:10;101001.59;;;10.23;63.04
7309;BME280;3695;53.330;9.876;2024-01-25T00:45:37;101005.38;;;10.32;63.02
7309;BME280;3695;53.330;9.876;2024-01-25T00:48:05;100994.47;;;10.48;62.73
7309;BME280;3695;53.330;9.876;2024-01-25T00:50:32;100990.38;;;10.28;62.99
7309;BME280;3695;53.330;9.876;2024-01-25T00:52:59;101002.97;;;10.40;62.93
7309;BME280;3695;53.330;9.876;2024-01-25T00:55:26;101007.06;;;10.61;62.49
7309;BME280;3695;53.330;9.876;2024-01-25T00:57:53;101005.78;;;10.46;62.11
7309;BME280;3695;53.330;9.876;2024-01-25T01:00:22;100993.41;;;10.43;62.29
7309;BME280;3695;53.330;9.876;2024-01-25T01:02:49;101007.44;;;10.44;62.78
7309;BME280;3695;53.330;9.876;2024-01-25T01:05:16;101026.63;;;10.40;63.02
7309;BME280;3695;53.330;9.876;2024-01-25T01:07:44;101020.66;;;10.45;62.98
7309;BME280;3695;53.330;9.876;2024-01-25T01:10:11;101016.06;;;10.38;62.88
7309;BME280;3695;53.330;9.876;2024-01-25T01:12:39;101022.00;;;10.63;62.50
7309;BME280;3695;53.330;9.876;2024-01-25T01:15:06;101022.00;;;10.63;62.71
7309;BME280;3695;53.330;9.876;2024-01-25T01:17:34;101012.16;;;10.55;62.03
7309;BME280;3695;53.330;9.876;2024-01-25T01:20:01;101023.94;;;10.70;62.05
7309;BME280;3695;53.330;9.876;2024-01-25T01:22:27;101019.25;;;10.58;61.90
7309;BME280;3695;53.330;9.876;2024-01-25T01:24:54;101018.34;;;10.57;61.98
7309;BME280;3695;53.330;9.876;2024-01-25T01:27:21;101017.25;;;10.49;62.22
7309;BME280;3695;53.330;9.876;2024-01-25T01:29:47;101019.03;;;10.50;62.00
7309;BME280;3695;53.330;9.876;2024-01-25T01:32:14;101032.91;;;10.76;62.19
7309;BME280;3695;53.330;9.876;2024-01-25T01:34:42;101031.94;;;10.73;61.98
7309;BME280;3695;53.330;9.876;2024-01-25T01:37:08;101027.44;;;10.69;61.74
7309;BME280;3695;53.330;9.876;2024-01-25T01:39:35;101042.53;;;10.76;61.84
7309;BME280;3695;53.330;9.876;2024-01-25T01:42:02;101036.13;;;10.66;61.70
7309;BME280;3695;53.330;9.876;2024-01-25T01:44:28;101050.00;;;10.60;61.69
7309;BME280;3695;53.330;9.876;2024-01-25T01:46:55;101037.09;;;10.70;62.09
7309;BME280;3695;53.330;9.876;2024-01-25T01:49:21;101033.00;;;10.49;62.36
7309;BME280;3695;53.330;9.876;2024-01-25T01:51:50;101033.28;;;10.58;62.42
7309;BME280;3695;53.330;9.876;2024-01-25T01:54:17;101025.53;;;10.63;62.11
7309;BME280;3695;53.330;9.876;2024-01-25T01:56:44;101027.38;;;10.67;62.02
7309;BME280;3695;53.330;9.876;2024-01-25T01:59:11;101033.19;;;10.55;62.10
7309;BME280;3695;53.330;9.876;2024-01-25T02:01:38;101041.94;;;10.54;62.13
7309;BME280;3695;53.330;9.876;2024-01-25T02:04:04;101036.59;;;10.51;62.20
7309;BME280;3695;53.330;9.876;2024-01-25T02:06:31;101032.22;;;10.52;62.28
7309;BME280;3695;53.330;9.876;2024-01-25T02:08:59;101039.63;;;10.35;62.60
7309;BME280;3695;53.330;9.876;2024-01-25T02:11:26;101040.66;;;10.72;62.49
7309;BME280;3695;53.330;9.876;2024-01-25T02:13:53;101053.53;;;10.63;62.01
7309;BME280;3695;53.330;9.876;2024-01-25T02:16:20;101039.81;;;10.41;62.50
7309;BME280;3695;53.330;9.876;2024-01-25T02:18:46;101060.16;;;10.48;62.48
7309;BME280;3695;53.330;9.876;2024-01-25T02:21:13;101064.34;;;10.42;62.03
7309;BME280;3695;53.330;9.876;2024-01-25T02:23:41;101066.06;;;10.41;62.38
7309;BME280;3695;53.330;9.876;2024-01-25T02:26:07;101067.41;;;10.57;62.15
7309;BME280;3695;53.330;9.876;2024-01-25T02:28:34;101071.69;;;10.53;62.68
7309;BME280;3695;53.330;9.876;2024-01-25T02:31:01;101068.66;;;10.40;62.68
7309;BME280;3695;53.330;9.876;2024-01-25T02:33:28;101068.47;;;10.64;62.26
7309;BME280;3695;53.330;9.876;2024-01-25T02:35:55;101073.84;;;10.38;62.52
7309;BME280;3695;53.330;9.876;2024-01-25T02:38:21;101061.66;;;10.40;62.42
7309;BME280;3695;53.330;9.876;2024-01-25T02:40:50;101083.34;;;10.63;62.68
7309;BME280;3695;53.330;9.876;2024-01-25T02:43:18;101082.56;;;10.67;62.39
7309;BME280;3695;53.330;9.876;2024-01-25T02:45:45;101085.78;;;10.57;62.32
7309;BME280;3695;53.330;9.876;2024-01-25T02:48:10;101080.34;;;10.81;62.28
7309;BME280;3695;53.330;9.876;2024-01-25T02:50:37;101081.38;;;10.56;62.15
7309;BME280;3695;53.330;9.876;2024-01-25T02:53:04;101084.94;;;10.58;62.52
7309;BME280;3695;53.330;9.876;2024-01-25T02:55:31;101084.59;;;10.76;62.46
7309;BME280;3695;53.330;9.876;2024-01-25T02:57:59;101092.13;;;10.64;62.16
7309;BME280;3695;53.330;9.876;2024-01-25T03:00:25;101095.66;;;10.64;62.25
7309;BME280;3695;53.330;9.876;2024-01-25T03:02:52;101101.78;;;10.65;62.34
7309;BME280;3695;53.330;9.876;2024-01-25T03:05:20;101094.53;;;10.56;62.21
7309;BME280;3695;53.330;9.876;2024-01-25T03:07:46;101105.97;;;10.88;62.36
7309;BME280;3695;53.330;9.876;2024-01-25T03:10:13;101109.50;;;10.58;62.21
7309;BME280;3695;53.330;9.876;2024-01-25T03:12:39;101114.88;;;10.63;61.93
7309;BME280;3695;53.330;9.876;2024-01-25T03:15:11;101102.47;;;10.57;62.36
7309;BME280;3695;53.330;9.876;2024-01-25T03:17:38;101117.16;;;10.51;62.56
7309;BME280;3695;53.330;9.876;2024-01-25T03:20:06;101109.44;;;10.57;62.35
7309;BME280;3695;53.330;9.876;2024-01-25T03:22:32;101105.81;;;10.52;62.71
7309;BME280;3695;53.330;9.876;2024-01-25T03:24:59;101113.16;;;10.64;61.92
7309;BME280;3695;53.330;9.876;2024-01-25T03:27:25;101119.31;;;10.64;62.08
7309;BME280;3695;53.330;9.876;2024-01-25T03:29:52;101116.63;;;10.63;62.28
7309;BME280;3695;53.330;9.876;2024-01-25T03:32:20;101115.59;;;10.57;62.65
7309;BME280;3695;53.330;9.876;2024-01-25T03:34:46;101114.09;;;10.66;62.68
7309;BME280;3695;53.330;9.876;2024-01-25T03:37:13;101119.00;;;10.53;62.96
7309;BME280;3695;53.330;9.876;2024-01-25T03:39:39;101124.25;;;10.53;62.26
7309;BME280;3695;53.330;9.876;2024-01-25T03:42:06;101132.88;;;10.49;62.55
7309;BME280;3695;53.330;9.876;2024-01-25T03:44:32;101144.06;;;10.42;62.65
7309;BME280;3695;53.330;9.876;2024-01-25T03:46:59;101148.69;;;10.51;63.03
7309;BME280;3695;53.330;9.876;2024-01-25T03:49:27;101158.53;;;10.58;63.06
7309;BME280;3695;53.330;9.876;2024-01-25T03:51:53;101157.25;;;10.74;62.64
7309;BME280;3695;53.330;9.876;2024-01-25T03:54:20;101165.84;;;10.68;62.61
7309;BME280;3695;53.330;9.876;2024-01-25T03:56:46;101155.81;;;10.55;62.24
7309;BME280;3695;53.330;9.876;2024-01-25T03:59:13;101176.81;;;10.55;62.22
7309;BME280;3695;53.330;9.876;2024-01-25T04:01:43;101174.56;;;10.66;62.95
7309;BME280;3695;53.330;9.876;2024-01-25T04:04:10;101163.66;;;10.53;62.73
7309;BME280;3695;53.330;9.876;2024-01-25T04:06:41;101178.47;;;10.51;63.23
7309;BME280;3695;53.330;9.876;2024-01-25T04:09:08;101181.13;;;10.51;62.99
7309;BME280;3695;53.330;9.876;2024-01-25T04:11:35;101196.63;;;10.44;62.75
7309;BME280;3695;53.330;9.876;2024-01-25T04:14:02;101193.03;;;10.69;62.65
7309;BME280;3695;53.330;9.876;2024-01-25T04:16:28;101198.03;;;10.59;62.54
7309;BME280;3695;53.330;9.876;2024-01-25T04:18:55;101198.75;;;10.55;62.19
7309;BME280;3695;53.330;9.876;2024-01-25T04:21:21;101184.50;;;10.47;62.72
7309;BME280;3695;53.330;9.876;2024-01-25T04:23:49;101194.38;;;10.54;62.70
7309;BME280;3695;53.330;9.876;2024-01-25T04:26:16;101204.97;;;10.57;62.47
7309;BME280;3695;53.330;9.876;2024-01-25T04:28:42;101206.81;;;10.33;63.03
7309;BME280;3695;53.330;9.876;2024-01-25T04:31:09;101213.47;;;10.50;63.51
7309;BME280;3695;53.330;9.876;2024-01-25T04:33:37;101203.09;;;10.53;63.16
7309;BME280;3695;53.330;9.876;2024-01-25T04:36:04;101222.50;;;10.58;62.69
7309;BME280;3695;53.330;9.876;2024-01-25T04:38:31;101208.34;;;10.53;63.00
7309;BME280;3695;53.330;9.876;2024-01-25T04:40:59;101196.75;;;10.47;63.46
7309;BME280;3695;53.330;9.876;2024-01-25T04:43:25;101214.69;;;10.33;63.18
7309;BME280;3695;53.330;9.876;2024-01-25T04:45:52;101212.25;;;10.39;63.58
7309;BME280;3695;53.330;9.876;2024-01-25T04:48:18;101204.50;;;10.42;63.16
7309;BME280;3695;53.330;9.876;2024-01-25T04:50:45;101217.25;;;10.32;62.96
7309;BME280;3695;53.330;9.876;2024-01-25T04:53:11;101210.41;;;10.35;63.22
7309;BME280;3695;53.330;9.876;2024-01-25T04:55:38;101229.88;;;10.42;63.58
7309;BME280;3695;53.330;9.876;2024-01-25T04:58:06;101217.69;;;10.17;64.12
7309;BME280;3695;53.330;9.876;2024-01-25T05:00:32;101230.78;;;10.42;63.68
7309;BME280;3695;53.330;9.876;2024-01-25T05:03:00;101226.69;;;10.25;63.91
7309;BME280;3695;53.330;9.876;2024-01-25T05:05:27;101239.22;;;10.34;63.87
7309;BME280;3695;53.330;9.876;2024-01-25T05:07:53;101241.91;;;10.35;64.22
7309;BME280;3695;53.330;9.876;2024-01-25T05:10:20;101246.41;;;10.39;63.35
7309;BME280;3695;53.330;9.876;2024-01-25T05:12:48;101234.75;;;10.31;64.02
7309;BME280;3695;53.330;9.876;2024-01-25T05:15:16;101251.34;;;10.29;64.12
7309;BME280;3695;53.330;9.876;2024-01-25T05:17:43;101244.81;;;10.44;63.35
7309;BME280;3695;53.330;9.876;2024-01-25T05:20:10;101245.84;;;10.48;63.16
7309;BME280;3695;53.330;9.876;2024-01-25T05:22:38;101250.22;;;10.49;63.00
7309;BME280;3695;53.330;9.876;2024-01-25T05:25:07;101245.13;;;10.53;62.83
7309;BME280;3695;53.330;9.876;2024-01-25T05:27:35;101243.53;;;10.58;63.26
7309;BME280;3695;53.330;9.876;2024-01-25T05:30:01;101243.94;;;10.44;62.92
7309;BME280;3695;53.330;9.876;2024-01-25T05:32:31;101250.19;;;10.47;62.87
7309;BME280;3695;53.330;9.876;2024-01-25T05:34:58;101256.31;;;10.21;63.27
7309;BME280;3695;53.330;9.876;2024-01-25T05:37:24;101259.31;;;10.32;63.52
7309;BME280;3695;53.330;9.876;2024-01-25T05:39:51;101267.88;;;10.26;63.70
7309;BME280;3695;53.330;9.876;2024-01-25T05:42:17;101278.75;;;10.37;63.75
7309;BME280;3695;53.330;9.876;2024-01-25T05:44:44;101286.03;;;10.45;63.18
7309;BME280;3695;53.330;9.876;2024-01-25T05:47:10;101286.03;;;10.45;63.37
7309;BME280;3695;53.330;9.876;2024-01-25T05:49:39;101277.75;;;10.60;63.38
7309;BME280;3695;53.330;9.876;2024-01-25T05:52:06;101292.84;;;10.66;62.97
7309;BME280;3695;53.330;9.876;2024-01-25T05:54:33;101291.41;;;10.48;62.87
7309;BME280;3695;53.330;9.876;2024-01-25T05:56:59;101288.25;;;10.33;63.60
7309;BME280;3695;53.330;9.876;2024-01-25T05:59:26;101295.19;;;10.31;63.27
7309;BME280;3695;53.330;9.876;2024-01-25T06:01:52;101309.69;;;10.45;63.32
7309;BME280;3695;53.330;9.876;2024-01-25T06:04:19;101296.53;;;10.18;63.32
7309;BME280;3695;53.330;9.876;2024-01-25T06:06:47;101303.59;;;10.46;63.49
7309;BME280;3695;53.330;9.876;2024-01-25T06:09:13;101296.47;;;10.17;64.02
7309;BME280;3695;53.330;9.876;2024-01-25T06:11:40;101314.03;;;10.18;63.88
7309;BME280;3695;53.330;9.876;2024-01-25T06:14:07;101296.19;;;10.35;63.31
7309;BME280;3695;53.330;9.876;2024-01-25T06:16:34;101296.53;;;10.45;63.41
7309;BME280;3695;53.330;9.876;2024-01-25T06:19:02;101312.44;;;10.50;63.68
7309;BME280;3695;53.330;9.876;2024-01-25T06:21:28;101318.91;;;10.59;63.44
7309;BME280;3695;53.330;9.876;2024-01-25T06:23:56;101328.91;;;10.19;63.22
7309;BME280;3695;53.330;9.876;2024-01-25T06:26:23;101331.22;;;10.10;64.37
7309;BME280;3695;53.330;9.876;2024-01-25T06:28:49;101342.91;;;10.18;64.12
7309;BME280;3695;53.330;9.876;2024-01-25T06:31:16;101352.78;;;10.25;64.26
7309;BME280;3695;53.330;9.876;2024-01-25T06:33:42;101347.00;;;10.35;63.63
7309;BME280;3695;53.330;9.876;2024-01-25T06:36:12;101344.56;;;10.16;64.47
7309;BME280;3695;53.330;9.876;2024-01-25T06:38:39;101348.34;;;10.49;63.64
7309;BME280;3695;53.330;9.876;2024-01-25T06:41:07;101341.63;;;10.31;63.76
7309;BME280;3695;53.330;9.876;2024-01-25T06:43:33;101360.91;;;10.33;63.59
7309;BME280;3695;53.330;9.876;2024-01-25T06:46:00;101356.06;;;10.18;63.89
7309;BME280;3695;53.330;9.876;2024-01-25T06:48:27;101381.16;;;10.35;63.67
7309;BME280;3695;53.330;9.876;2024-01-25T06:50:53;101381.88;;;10.31;64.31
7309;BME280;3695;53.330;9.876;2024-01-25T06:53:20;101372.03;;;10.24;64.36
7309;BME280;3695;53.330;9.876;2024-01-25T06:55:47;101371.63;;;10.39;64.13
7309;BME280;3695;53.330;9.876;2024-01-25T06:58:15;101380.28;;;10.35;63.44
7309;BME280;3695;53.330;9.876;2024-01-25T07:00:41;101384.50;;;10.31;63.95
7309;BME280;3695;53.330;9.876;2024-01-25T07:03:09;101395.53;;;10.21;63.87
7309;BME280;3695;53.330;9.876;2024-01-25T07:05:36;101386.22;;;10.29;64.41
7309;BME280;3695;53.330;9.876;2024-01-25T07:08:03;101393.56;;;10.39;63.64
7309;BME280;3695;53.330;9.876;2024-01-25T07:10:30;101395.00;;;10.31;63.75
7309;BME280;3695;53.330;9.876;2024-01-25T07:12:57;101401.28;;;10.35;64.19
7309;BME280;3695;53.330;9.876;2024-01-25T07:15:25;101410.59;;;10.50;64.06
7309;BME280;3695;53.330;9.876;2024-01-25T07:17:51;101418.25;;;10.44;63.85
7309;BME280;3695;53.330;9.876;2024-01-25T07:20:18;101423.50;;;10.44;63.99
7309;BME280;3695;53.330;9.876;2024-01-25T07:22:45;101435.50;;;10.61;63.98
7309;BME280;3695;53.330;9.876;2024-01-25T07:25:12;101434.50;;;10.58;63.43
7309;BME280;3695;53.330;9.876;2024-01-25T07:27:38;101426.13;;;10.44;63.32
7309;BME280;3695;53.330;9.876;2024-01-25T07:30:05;101428.47;;;10.35;63.46
7309;BME280;3695;53.330;9.876;2024-01-25T07:32:35;101426.06;;;10.43;63.66
7309;BME280;3695;53.330;9.876;2024-01-25T07:35:03;101424.34;;;10.43;63.29
7309;BME280;3695;53.330;9.876;2024-01-25T07:37:30;101429.34;;;10.36;63.28
7309;BME280;3695;53.330;9.876;2024-01-25T07:39:57;101438.66;;;10.51;63.91
7309;BME280;3695;53.330;9.876;2024-01-25T07:42:23;101444.97;;;10.56;63.81
7309;BME280;3695;53.330;9.876;2024-01-25T07:44:50;101434.16;;;10.47;63.99
7309;BME280;3695;53.330;9.876;2024-01-25T07:47:16;101433.94;;;10.41;63.23
7309;BME280;3695;53.330;9.876;2024-01-25T07:49:44;101438.50;;;10.47;63.67
7309;BME280;3695;53.330;9.876;2024-01-25T07:52:11;101430.63;;;10.47;63.33
7309;BME280;3695;53.330;9.876;2024-01-25T07:54:38;101438.72;;;10.53;63.81
7309;BME280;3695;53.330;9.876;2024-01-25T07:57:04;101449.09;;;10.50;63.23
7309;BME280;3695;53.330;9.876;2024-01-25T07:59:31;101461.09;;;10.42;63.18
7309;BME280;3695;53.330;9.876;2024-01-25T08:01:57;101448.91;;;10.20;63.44
7309;BME280;3695;53.330;9.876;2024-01-25T08:04:24;101458.94;;;10.55;64.10
7309;BME280;3695;53.330;9.876;2024-01-25T08:06:53;101456.38;;;10.57;63.70
7309;BME280;3695;53.330;9.876;2024-01-25T08:09:19;101450.91;;;10.76;63.23
7309;BME280;3695;53.330;9.876;2024-01-25T08:11:46;101468.41;;;10.76;63.21
7309;BME280;3695;53.330;9.876;2024-01-25T08:14:12;101461.50;;;10.78;63.20
7309;BME280;3695;53.330;9.876;2024-01-25T08:16:39;101460.44;;;10.73;62.86
7309;BME280;3695;53.330;9.876;2024-01-25T08:19:06;101454.78;;;10.62;63.00
7309;BME280;3695;53.330;9.876;2024-01-25T08:21:32;101461.53;;;10.54;63.30
7309;BME280;3695;53.330;9.876;2024-01-25T08:24:02;101458.13;;;10.33;63.61
7309;BME280;3695;53.330;9.876;2024-01-25T08:26:29;101451.78;;;10.51;64.02
7309;BME280;3695;53.330;9.876;2024-01-25T08:28:56;101449.66;;;10.65;63.57
7309;BME280;3695;53.330;9.876;2024-01-25T08:31:22;101455.16;;;10.47;63.13
7309;BME280;3695;53.330;9.876;2024-01-25T08:33:49;101457.38;;;10.35;63.34
7309;BME280;3695;53.330;9.876;2024-01-25T08:36:17;101455.59;;;10.59;63.14
7309;BME280;3695;53.330;9.876;2024-01-25T08:38:43;101461.03;;;10.40;63.23
7309;BME280;3695;53.330;9.876;2024-01-25T08:41:12;101466.22;;;10.39;63.30
7309;BME280;3695;53.330;9.876;2024-01-25T08:43:40;101463.50;;;10.61;63.11
7309;BME280;3695;53.330;9.876;2024-01-25T08:46:07;101466.50;;;10.46;63.54
7309;BME280;3695;53.330;9.876;2024-01-25T08:48:34;101459.56;;;10.72;63.32
7309;BME280;3695;53.330;9.876;2024-01-25T08:51:00;101468.63;;;10.56;63.63
7309;BME280;3695;53.330;9.876;2024-01-25T08:53:27;101458.88;;;10.79;63.32
7309;BME280;3695;53.330;9.876;2024-01-25T08:55:54;101473.00;;;10.81;62.72
7309;BME280;3695;53.330;9.876;2024-01-25T08:58:22;101473.56;;;10.47;63.16
7309;BME280;3695;53.330;9.876;2024-01-25T09:00:48;101473.16;;;10.60;63.00
7309;BME280;3695;53.330;9.876;2024-01-25T09:03:15;101488.72;;;10.54;63.68
7309;BME280;3695;53.330;9.876;2024-01-25T09:05:42;101484.09;;;10.49;63.22
7309;BME280;3695;53.330;9.876;2024-01-25T09:08:11;101487.81;;;10.54;63.68
7309;BME280;3695;53.330;9.876;2024-01-25T09:10:37;101500.03;;;11.02;63.31
7309;BME280;3695;53.330;9.876;2024-01-25T09:13:04;101495.94;;;10.61;63.24
7309;BME280;3695;53.330;9.876;2024-01-25T09:15:32;101505.78;;;10.67;63.34
7309;BME280;3695;53.330;9.876;2024-01-25T09:17:58;101508.38;;;10.66;63.21
7309;BME280;3695;53.330;9.876;2024-01-25T09:20:25;101509.09;;;10.61;62.69
7309;BME280;3695;53.330;9.876;2024-01-25T09:22:51;101507.72;;;10.71;63.29
7309;BME280;3695;53.330;9.876;2024-01-25T09:25:19;101513.34;;;10.82;63.35
7309;BME280;3695;53.330;9.876;2024-01-25T09:27:45;101514.16;;;10.81;62.82
7309;BME280;3695;53.330;9.876;2024-01-25T09:30:13;101526.50;;;10.58;63.13
7309;BME280;3695;53.330;9.876;2024-01-25T09:32:41;101524.47;;;10.75;63.16
7309;BME280;3695;53.330;9.876;2024-01-25T09:35:08;101525.22;;;10.96;62.83
7309;BME280;3695;53.330;9.876;2024-01-25T09:37:34;101536.53;;;10.93;62.91
7309;BME280;3695;53.330;9.876;2024-01-25T09:40:01;101549.56;;;10.41;63.38
7309;BME280;3695;53.330;9.876;2024-01-25T09:42:29;101562.31;;;10.78;63.32
7309;BME280;3695;53.330;9.876;2024-01-25T09:44:55;101570.69;;;10.68;62.64
7309;BME280;3695;53.330;9.876;2024-01-25T09:47:22;101570.19;;;11.03;62.53
7309;BME280;3695;53.330;9.876;2024-01-25T09:49:50;101576.28;;;10.77;62.49
7309;BME280;3695;53.330;9.876;2024-01-25T09:52:19;101580.03;;;10.84;62.85
7309;BME280;3695;53.330;9.876;2024-01-25T09:54:52;101577.19;;;10.78;62.74
7309;BME280;3695;53.330;9.876;2024-01-25T09:57:22;101584.25;;;10.56;63.33
7309;BME280;3695;53.330;9.876;2024-01-25T09:59:52;101575.22;;;10.72;63.12
7309;BME280;3695;53.330;9.876;2024-01-25T10:02:20;101585.22;;;10.58;63.36
7309;BME280;3695;53.330;9.876;2024-01-25T10:04:50;101587.72;;;10.55;63.06
7309;BME280;3695;53.330;9.876;2024-01-25T10:07:35;101583.06;;;10.71;63.33
7309;BME280;3695;53.330;9.876;2024-01-25T10:10:02;101573.94;;;10.85;63.00
7309;BME280;3695;53.330;9.876;2024-01-25T10:12:30;101583.88;;;10.70;63.22
7309;BME280;3695;53.330;9.876;2024-01-25T10:14:57;101570.00;;;10.50;62.51
7309;BME280;3695;53.330;9.876;2024-01-25T10:17:23;101582.44;;;10.78;63.43
7309;BME280;3695;53.330;9.876;2024-01-25T10:19:51;101577.13;;;10.52;63.21
7309;BME280;3695;53.330;9.876;2024-01-25T10:22:18;101572.63;;;10.74;63.18
7309;BME280;3695;53.330;9.876;2024-01-25T10:24:45;101583.50;;;10.59;63.27
7309;BME280;3695;53.330;9.876;2024-01-25T10:27:12;101570.44;;;10.86;63.37
7309;BME280;3695;53.330;9.876;2024-01-25T10:29:40;101574.81;;;10.85;62.83
7309;BME280;3695;53.330;9.876;2024-01-25T10:32:08;101572.56;;;10.96;62.86
7309;BME280;3695;53.330;9.876;2024-01-25T10:34:35;101580.81;;;10.57;62.41
7309;BME280;3695;53.330;9.876;2024-01-25T10:37:05;101570.97;;;10.76;62.95
7309;BME280;3695;53.330;9.876;2024-01-25T10:39:32;101584.00;;;10.73;63.16
7309;BME280;3695;53.330;9.876;2024-01-25T10:41:59;101576.78;;;10.67;62.89
7309;BME280;3695;53.330;9.876;2024-01-25T10:44:26;101579.53;;;10.70;62.88
7309;BME280;3695;53.330;9.876;2024-01-25T10:46:53;101580.19;;;10.65;62.95
7309;BME280;3695;53.330;9.876;2024-01-25T10:49:20;101597.09;;;10.95;63.09
7309;BME280;3695;53.330;9.876;2024-01-25T10:51:48;101595.59;;;10.78;63.47
7309;BME280;3695;53.330;9.876;2024-01-25T10:54:16;101588.97;;;10.89;62.95
7309;BME280;3695;53.330;9.876;2024-01-25T10:56:43;101591.84;;;10.71;62.34
7309;BME280;3695;53.330;9.876;2024-01-25T10:59:11;101593.72;;;10.99;62.82
7309;BME280;3695;53.330;9.876;2024-01-25T11:01:37;101594.66;;;11.01;62.32
7309;BME280;3695;53.330;9.876;2024-01-25T11:04:12;101590.94;;;10.71;63.00
7309;BME280;3695;53.330;9.876;2024-01-25T11:06:38;101597.31;;;10.53;63.08
7309;BME280;3695;53.330;9.876;2024-01-25T11:09:06;101584.88;;;10.73;62.99
7309;BME280;3695;53.330;9.876;2024-01-25T11:11:36;101590.81;;;10.68;63.23
7309;BME280;3695;53.330;9.876;2024-01-25T11:14:03;101589.59;;;10.82;63.56
7309;BME280;3695;53.330;9.876;2024-01-25T11:16:31;101589.28;;;10.73;62.72
7309;BME280;3695;53.330;9.876;2024-01-25T11:19:00;101584.28;;;11.06;62.54
7309;BME280;3695;53.330;9.876;2024-01-25T11:21:39;101576.56;;;10.85;62.91
7309;BME280;3695;53.330;9.876;2024-01-25T11:24:12;101581.19;;;10.92;62.66
7309;BME280;3695;53.330;9.876;2024-01-25T11:26:40;101597.59;;;10.85;62.42
7309;BME280;3695;53.330;9.876;2024-01-25T11:29:06;101588.44;;;10.99;62.26
7309;BME280;3695;53.330;9.876;2024-01-25T11:31:34;101583.81;;;10.92;62.65
7309;BME280;3695;53.330;9.876;2024-01-25T11:34:01;101584.00;;;10.96;62.55
7309;BME280;3695;53.330;9.876;2024-01-25T11:36:28;101574.69;;;11.06;62.59
7309;BME280;3695;53.330;9.876;2024-01-25T11:38:55;101569.81;;;10.93;62.14
7309;BME280;3695;53.330;9.876;2024-01-25T11:41:22;101573.66;;;10.77;62.25
7309;BME280;3695;53.330;9.876;2024-01-25T11:43:50;101573.72;;;11.04;62.67
7309;BME280;3695;53.330;9.876;2024-01-25T11:46:17;101575.88;;;11.16;62.08
7309;BME280;3695;53.330;9.876;2024-01-25T11:48:44;101576.19;;;10.99;62.40
7309;BME280;3695;53.330;9.876;2024-01-25T11:51:12;101583.41;;;11.05;62.11
7309;BME280;3695;53.330;9.876;2024-01-25T11:53:38;101578.38;;;10.87;62.73
7309;BME280;3695;53.330;9.876;2024-01-25T11:56:07;101574.03;;;10.88;61.92
7309;BME280;3695;53.330;9.876;2024-01-25T11:58:36;101582.16;;;10.70;62.58
7309;BME280;3695;53.330;9.876;2024-01-25T12:01:05;101578.31;;;10.84;62.77
7309;BME280;3695;53.330;9.876;2024-01-25T12:03:33;101587.75;;;11.05;62.31
7309;BME280;3695;53.330;9.876;2024-01-25T12:06:01;101589.41;;;11.26;62.38
7309;BME280;3695;53.330;9.876;2024-01-25T12:08:29;101587.09;;;11.10;62.13
7309;BME280;3695;53.330;9.876;2024-01-25T12:11:06;101578.34;;;11.11;61.92
7309;BME280;3695;53.330;9.876;2024-01-25T12:13:33;101582.28;;;10.98;62.30
7309;BME280;3695;53.330;9.876;2024-01-25T12:16:03;101570.56;;;10.89;62.63
7309;BME280;3695;53.330;9.876;2024-01-25T12:18:30;101565.03;;;11.07;62.72
7309;BME280;3695;53.330;9.876;2024-01-25T12:20:58;101575.19;;;11.21;62.49
7309;BME280;3695;53.330;9.876;2024-01-25T12:23:30;101567.81;;;11.36;61.92
7309;BME280;3695;53.330;9.876;2024-01-25T12:25:59;101569.00;;;11.45;61.73
7309;BME280;3695;53.330;9.876;2024-01-25T12:28:26;101573.09;;;11.36;62.09
7309;BME280;3695;53.330;9.876;2024-01-25T12:30:52;101570.50;;;11.65;61.46
7309;BME280;3695;53.330;9.876;2024-01-25T12:33:20;101576.19;;;11.50;61.49
7309;BME280;3695;53.330;9.876;2024-01-25T12:35:47;101574.59;;;12.09;61.26
7309;BME280;3695;53.330;9.876;2024-01-25T12:38:13;101569.88;;;12.27;60.55
7309;BME280;3695;53.330;9.876;2024-01-25T12:40:41;101568.56;;;12.41;59.92
7309;BME280;3695;53.330;9.876;2024-01-25T12:43:07;101563.72;;;11.98;59.34
7309;BME280;3695;53.330;9.876;2024-01-25T12:45:34;101566.16;;;12.20;59.97
7309;BME280;3695;53.330;9.876;2024-01-25T12:48:01;101569.22;;;12.06;59.65
7309;BME280;3695;53.330;9.876;2024-01-25T12:50:29;101571.94;;;11.80;59.99
7309;BME280;3695;53.330;9.876;2024-01-25T12:52:55;101570.28;;;12.12;59.65
7309;BME280;3695;53.330;9.876;2024-01-25T12:55:22;101568.22;;;11.74;59.51
7309;BME280;3695;53.330;9.876;2024-01-25T12:57:49;101572.44;;;11.70;59.90
7309;BME280;3695;53.330;9.876;2024-01-25T13:00:16;101570.50;;;11.63;60.11
7309;BME280;3695;53.330;9.876;2024-01-25T13:02:42;101574.22;;;11.97;59.66
7309;BME280;3695;53.330;9.876;2024-01-25T13:05:09;101571.66;;;11.73;59.54
7309;BME280;3695;53.330;9.876;2024-01-25T13:07:37;101571.06;;;11.80;59.39
7309;BME280;3695;53.330;9.876;2024-01-25T13:10:04;101569.13;;;11.74;59.38